Cruzeiro Do Canal — CSVG — position and weather

sailwx.info

Track history (hours):
 
Tides and Currents Weather Stations Pressure Air Temp Water Temp Dewpoint Dewpoint Depression Visibility Wind Speed Wind Dir Waves Ship Positions

Cruzeiro Do Canal

Last reported at 2014-Nov-24 11:33 UTC. Time now 2014-Nov-24 12:24 UTC.
Position N 38°34' W 028°18'.

Length 32 m.

Type: Passenger vessel. MMSI: 204701250.

Date/timePositionNaut miles runAvg speedWind from/ knotsBaromVisibWave heightAir tempDewpointWater temp
2014-Nov-24 11:33N 38°34' W 028°18'6 6.3
2014-Nov-24 10:33N 38°40' W 028°13'9 9.0
2014-Nov-24 09:33N 38°32' W 028°19'1110.6
2014-Nov-24 08:33N 38°34' W 028°32'4 4.4
2014-Nov-24 07:33N 38°32' W 028°37'0 0.0
2014-Nov-23 20:19N 38°32' W 028°37'3 4.2
2014-Nov-23 19:33N 38°32' W 028°33'0 0.4
2014-Nov-23 18:33N 38°32' W 028°34'3 2.9
2014-Nov-23 17:33N 38°32' W 028°37'0 0.0
2014-Nov-22 18:33N 38°32' W 028°37'1010.4
2014-Nov-22 17:34N 38°37' W 028°25'1110.9
2014-Nov-22 16:33N 38°41' W 028°12'1010.4
2014-Nov-22 15:33N 38°32' W 028°19'0 0.0
2014-Nov-22 14:33N 38°32' W 028°19'0 0.0
2014-Nov-22 13:34N 38°32' W 028°19'10 9.9
2014-Nov-22 12:33N 38°40' W 028°13'9 9.1
2014-Nov-22 11:33N 38°38' W 028°24'1212.0
2014-Nov-22 10:33N 38°32' W 028°37'0 0.0
2014-Nov-21 20:16N 38°32' W 028°37'4 5.0
2014-Nov-21 19:33N 38°32' W 028°33'2 1.6
2014-Nov-21 18:33N 38°33' W 028°34'2 2.3
2014-Nov-21 17:33N 38°32' W 028°37'0 0.0
2014-Nov-21 16:33N 38°32' W 028°37'0 0.0
2014-Nov-21 15:33N 38°32' W 028°37'0 0.0
2014-Nov-21 14:33N 38°32' W 028°37'0 0.0
2014-Nov-21 13:33N 38°32' W 028°37'8 8.2
2014-Nov-21 12:33N 38°35' W 028°27'7 7.3
2014-Nov-21 11:33N 38°33' W 028°18'9 9.0
2014-Nov-21 10:33N 38°41' W 028°12'1010.5
2014-Nov-21 09:33N 38°32' W 028°19'10 9.8
2014-Nov-21 08:33N 38°35' W 028°31'5 0.4
2014-Nov-20 19:33N 38°32' W 028°37'2 2.1
2014-Nov-20 18:33N 38°33' W 028°35'2 2.1
2014-Nov-20 17:33N 38°32' W 028°37'0 0.0
2014-Nov-20 16:33N 38°32' W 028°37'0 0.0
2014-Nov-20 15:33N 38°32' W 028°37'0 0.0
2014-Nov-20 14:34N 38°32' W 028°37'4 3.7
2014-Nov-20 13:33N 38°33' W 028°33'8 8.4
2014-Nov-20 12:33N 38°38' W 028°24'10 9.6
2014-Nov-20 11:33N 38°41' W 028°12'10 9.9
2014-Nov-20 10:33N 38°37' W 028°24'8 7.8
2014-Nov-20 09:33N 38°32' W 028°32'4 0.3
2014-Nov-19 16:33N 38°32' W 028°37'0 0.0
2014-Nov-19 15:33N 38°32' W 028°37'0 0.0
2014-Nov-19 14:33N 38°32' W 028°37'4 3.6
2014-Nov-19 13:33N 38°33' W 028°33'4 3.6
2014-Nov-19 12:33N 38°32' W 028°37'0 0.0
2014-Nov-19 11:33N 38°32' W 028°37'0 0.0
2014-Nov-19 10:33N 38°32' W 028°37'0 0.0
2014-Nov-18 15:33N 38°32' W 028°37'0 0.0
2014-Nov-18 14:33N 38°32' W 028°37'0 0.0
2014-Nov-18 13:33N 38°32' W 028°37'4 4.3
2014-Nov-18 12:33N 38°32' W 028°32'9 9.3
2014-Nov-18 11:34N 38°38' W 028°23'9 8.6
2014-Nov-18 10:33N 38°41' W 028°12'1010.0
2014-Nov-18 09:33N 38°32' W 028°19'9 9.3
2014-Nov-18 08:34N 38°35' W 028°30'6 0.4
2014-Nov-17 16:33N 38°32' W 028°37'0 0.1
2014-Nov-17 15:33N 38°32' W 028°37'0 0.0
2014-Nov-17 14:33N 38°32' W 028°37'0 0.0
2014-Nov-17 13:34N 38°32' W 028°37'9 8.9
2014-Nov-17 12:33N 38°35' W 028°26'7 7.0
2014-Nov-17 11:33N 38°32' W 028°18'9 9.4
2014-Nov-17 10:33N 38°41' W 028°12'1010.4
2014-Nov-17 09:34N 38°32' W 028°19'1010.5
2014-Nov-17 08:34N 38°34' W 028°32'  
Track history (hours):
 
Tides and Currents Weather Stations Pressure Air Temp Water Temp Dewpoint Dewpoint Depression Visibility Wind Speed Wind Dir Waves Ship Positions

Cruzeiro Do Canal

Last reported at 2014-Nov-24 11:33 UTC. Time now 2014-Nov-24 12:24 UTC.
Position N 38°34' W 028°18'.

Length 32 m.

Type: Passenger vessel. MMSI: 204701250.

Date/timePositionNaut miles runAvg speedWind from/ knotsBaromVisibWave heightAir tempDewpointWater temp
2014-Nov-24 11:33N 38°34' W 028°18'6 6.3
2014-Nov-24 10:33N 38°40' W 028°13'9 9.0
2014-Nov-24 09:33N 38°32' W 028°19'1110.6
2014-Nov-24 08:33N 38°34' W 028°32'4 4.4
2014-Nov-24 07:33N 38°32' W 028°37'0 0.0
2014-Nov-23 20:19N 38°32' W 028°37'3 4.2
2014-Nov-23 19:33N 38°32' W 028°33'0 0.4
2014-Nov-23 18:33N 38°32' W 028°34'3 2.9
2014-Nov-23 17:33N 38°32' W 028°37'0 0.0
2014-Nov-22 18:33N 38°32' W 028°37'1010.4
2014-Nov-22 17:34N 38°37' W 028°25'1110.9
2014-Nov-22 16:33N 38°41' W 028°12'1010.4
2014-Nov-22 15:33N 38°32' W 028°19'0 0.0
2014-Nov-22 14:33N 38°32' W 028°19'0 0.0
2014-Nov-22 13:34N 38°32' W 028°19'10 9.9
2014-Nov-22 12:33N 38°40' W 028°13'9 9.1
2014-Nov-22 11:33N 38°38' W 028°24'1212.0
2014-Nov-22 10:33N 38°32' W 028°37'0 0.0
2014-Nov-21 20:16N 38°32' W 028°37'4 5.0
2014-Nov-21 19:33N 38°32' W 028°33'2 1.6
2014-Nov-21 18:33N 38°33' W 028°34'2 2.3
2014-Nov-21 17:33N 38°32' W 028°37'0 0.0
2014-Nov-21 16:33N 38°32' W 028°37'0 0.0
2014-Nov-21 15:33N 38°32' W 028°37'0 0.0
2014-Nov-21 14:33N 38°32' W 028°37'0 0.0
2014-Nov-21 13:33N 38°32' W 028°37'8 8.2
2014-Nov-21 12:33N 38°35' W 028°27'7 7.3
2014-Nov-21 11:33N 38°33' W 028°18'9 9.0
2014-Nov-21 10:33N 38°41' W 028°12'1010.5
2014-Nov-21 09:33N 38°32' W 028°19'10 9.8
2014-Nov-21 08:33N 38°35' W 028°31'5 0.4
2014-Nov-20 19:33N 38°32' W 028°37'2 2.1
2014-Nov-20 18:33N 38°33' W 028°35'2 2.1
2014-Nov-20 17:33N 38°32' W 028°37'0 0.0
2014-Nov-20 16:33N 38°32' W 028°37'0 0.0
2014-Nov-20 15:33N 38°32' W 028°37'0 0.0
2014-Nov-20 14:34N 38°32' W 028°37'4 3.7
2014-Nov-20 13:33N 38°33' W 028°33'8 8.4
2014-Nov-20 12:33N 38°38' W 028°24'10 9.6
2014-Nov-20 11:33N 38°41' W 028°12'10 9.9
2014-Nov-20 10:33N 38°37' W 028°24'8 7.8
2014-Nov-20 09:33N 38°32' W 028°32'4 0.3
2014-Nov-19 16:33N 38°32' W 028°37'0 0.0
2014-Nov-19 15:33N 38°32' W 028°37'0 0.0
2014-Nov-19 14:33N 38°32' W 028°37'4 3.6
2014-Nov-19 13:33N 38°33' W 028°33'4 3.6
2014-Nov-19 12:33N 38°32' W 028°37'0 0.0
2014-Nov-19 11:33N 38°32' W 028°37'0 0.0
2014-Nov-19 10:33N 38°32' W 028°37'0 0.0
2014-Nov-18 15:33N 38°32' W 028°37'0 0.0
2014-Nov-18 14:33N 38°32' W 028°37'0 0.0
2014-Nov-18 13:33N 38°32' W 028°37'4 4.3
2014-Nov-18 12:33N 38°32' W 028°32'9 9.3
2014-Nov-18 11:34N 38°38' W 028°23'9 8.6
2014-Nov-18 10:33N 38°41' W 028°12'1010.0
2014-Nov-18 09:33N 38°32' W 028°19'9 9.3
2014-Nov-18 08:34N 38°35' W 028°30'6 0.4
2014-Nov-17 16:33N 38°32' W 028°37'0 0.1
2014-Nov-17 15:33N 38°32' W 028°37'0 0.0
2014-Nov-17 14:33N 38°32' W 028°37'0 0.0
2014-Nov-17 13:34N 38°32' W 028°37'9 8.9
2014-Nov-17 12:33N 38°35' W 028°26'7 7.0
2014-Nov-17 11:33N 38°32' W 028°18'9 9.4
2014-Nov-17 10:33N 38°41' W 028°12'1010.4
2014-Nov-17 09:34N 38°32' W 028°19'1010.5
2014-Nov-17 08:34N 38°34' W 028°32'  

Dump ship's entire track history